Time;durP1;ratioP1;P1;durP2;ratioP2;P2;SDS_P1;SDS_P2;PMS_P1;PMS_P2;Temp;Humidity;BMP_temperature;BMP_pressure;BME280_temperature;BME280_humidity;BME280_pressure;Samples;Min_cycle;Max_cycle;Signal;HPM_P1;HPM_P2
2023/04/25 00:01:02;;;;;;;13.75;3.13;;;5.90;99.90;;;;;;5035424;28;20120;-80
2023/04/25 00:03:29;;;;;;;21.02;3.00;;;5.90;99.90;;;;;;5035163;28;20045;-80
2023/04/25 00:05:56;;;;;;;17.48;2.85;;;5.90;99.90;;;;;;5036206;28;20037;-81
2023/04/25 00:08:24;;;;;;;18.77;3.17;;;5.90;99.90;;;;;;5034345;28;20042;-81
2023/04/25 00:10:51;;;;;;;19.02;3.10;;;5.90;99.90;;;;;;5036223;28;20056;-80
2023/04/25 00:13:19;;;;;;;8.88;2.30;;;5.90;99.90;;;;;;5035406;28;20037;-81
2023/04/25 00:15:46;;;;;;;11.38;2.58;;;5.80;99.90;;;;;;5035966;28;20037;-80
2023/04/25 00:18:15;;;;;;;9.45;2.45;;;5.80;99.90;;;;;;5035976;28;20065;-81
2023/04/25 00:20:46;;;;;;;10.98;2.13;;;5.70;99.90;;;;;;5035127;28;20053;-81
2023/04/25 00:23:17;;;;;;;9.05;2.25;;;5.60;99.90;;;;;;5035014;28;20064;-80
2023/04/25 00:25:44;;;;;;;9.93;2.55;;;5.60;99.90;;;;;;5036214;28;20092;-80
2023/04/25 00:30:57;;;;;;;10.90;2.30;;;5.60;99.90;;;;;;5034770;28;20053;-80
2023/04/25 00:33:24;;;;;;;7.43;2.15;;;5.60;99.90;;;;;;5033783;28;20042;-81
2023/04/25 00:35:50;;;;;;;14.20;2.22;;;5.60;99.90;;;;;;5035584;28;20124;-80
2023/04/25 00:38:19;;;;;;;13.25;2.25;;;5.50;99.90;;;;;;5018465;28;20475;-80
2023/04/25 00:40:45;;;;;;;15.80;2.53;;;5.40;99.90;;;;;;5016679;28;20365;-80
2023/04/25 00:43:12;;;;;;;10.18;2.28;;;5.40;99.90;;;;;;5034329;28;20053;-81
2023/04/25 00:45:39;;;;;;;12.63;3.85;;;5.30;99.90;;;;;;5034432;28;20140;-81
2023/04/25 00:48:07;;;;;;;10.43;2.35;;;5.20;99.90;;;;;;5034434;28;20044;-80
2023/04/25 00:50:33;;;;;;;12.40;1.80;;;5.20;99.90;;;;;;5034446;28;20045;-80
2023/04/25 00:53:00;;;;;;;5.40;1.70;;;5.10;99.90;;;;;;5035526;28;20391;-81
2023/04/25 00:55:27;;;;;;;11.35;1.92;;;5.10;99.90;;;;;;5033438;28;20056;-81
2023/04/25 00:57:53;;;;;;;14.45;2.17;;;5.10;99.90;;;;;;5035062;28;20049;-80
2023/04/25 01:00:20;;;;;;;10.70;2.65;;;5.00;99.90;;;;;;5033450;28;20093;-81
2023/04/25 01:02:47;;;;;;;9.25;1.92;;;5.00;99.90;;;;;;5034222;28;20041;-80
2023/04/25 01:05:14;;;;;;;13.52;1.77;;;4.90;99.90;;;;;;5034199;28;20045;-80
2023/04/25 01:07:41;;;;;;;10.30;1.90;;;4.90;99.90;;;;;;5017368;28;20045;-80
2023/04/25 01:10:07;;;;;;;20.25;2.28;;;4.90;99.90;;;;;;5035276;28;20519;-80
2023/04/25 01:12:34;;;;;;;17.05;2.63;;;4.80;99.90;;;;;;5033985;28;20037;-80
2023/04/25 01:15:00;;;;;;;9.43;2.25;;;4.80;99.90;;;;;;5033297;28;20037;-80
2023/04/25 01:17:28;;;;;;;10.10;2.53;;;4.70;99.90;;;;;;5034140;28;20041;-80
2023/04/25 01:19:55;;;;;;;10.45;2.30;;;4.70;99.90;;;;;;5034317;28;20482;-81
2023/04/25 01:22:22;;;;;;;6.60;1.92;;;4.70;99.90;;;;;;5033865;28;20041;-80
2023/04/25 01:24:50;;;;;;;6.13;1.85;;;4.60;99.90;;;;;;5033988;28;20049;-80
2023/04/25 01:27:20;;;;;;;11.27;2.28;;;4.60;99.90;;;;;;5033047;28;20470;-80
2023/04/25 01:29:47;;;;;;;14.40;2.38;;;4.50;99.90;;;;;;5033776;28;20099;-80
2023/04/25 01:32:14;;;;;;;10.98;2.72;;;4.50;99.90;;;;;;5033716;28;20038;-80
2023/04/25 01:34:41;;;;;;;10.95;1.73;;;4.40;99.90;;;;;;5016577;28;20037;-80
2023/04/25 01:39:39;;;;;;;17.95;2.10;;;4.40;99.90;;;;;;5033883;28;20451;-80
2023/04/25 01:42:05;;;;;;;13.93;2.17;;;4.40;99.90;;;;;;5043630;28;20053;-80
2023/04/25 01:44:32;;;;;;;9.10;2.25;;;4.30;99.90;;;;;;5036911;28;20140;-80
2023/04/25 01:46:59;;;;;;;19.05;2.42;;;4.30;99.90;;;;;;5035883;28;20494;-79
2023/04/25 01:49:27;;;;;;;5.72;1.73;;;4.30;99.90;;;;;;5036809;28;20041;-80
2023/04/25 01:51:54;;;;;;;10.07;2.42;;;4.20;99.90;;;;;;5054562;28;20033;-80
2023/04/25 01:54:21;;;;;;;11.23;1.92;;;4.20;99.90;;;;;;5057688;28;20045;-80
2023/04/25 01:56:48;;;;;;;10.90;1.95;;;4.10;99.90;;;;;;5040964;28;20048;-79
2023/04/25 01:59:16;;;;;;;13.80;2.28;;;4.10;99.90;;;;;;5023625;28;20392;-80
2023/04/25 02:02:04;;;;;;;17.27;2.03;;;4.10;99.90;;;;;;5020173;28;20038;-80
2023/04/25 02:04:32;;;;;;;14.82;2.33;;;4.00;99.90;;;;;;5020911;28;20072;-80
2023/04/25 02:06:59;;;;;;;7.97;1.98;;;4.00;99.90;;;;;;5019979;28;20069;-80
2023/04/25 02:09:34;;;;;;;10.38;1.98;;;3.90;99.90;;;;;;5021120;28;20056;-80
2023/04/25 02:12:05;;;;;;;8.85;1.80;;;4.00;99.90;;;;;;5020860;28;20059;-80
2023/04/25 02:14:36;;;;;;;14.37;2.03;;;3.90;99.90;;;;;;5019917;28;20052;-80
2023/04/25 02:17:15;;;;;;;14.20;2.33;;;3.90;99.90;;;;;;5021163;28;20053;-80
2023/04/25 02:19:43;;;;;;;17.33;2.22;;;3.90;99.90;;;;;;5020702;28;20046;-80
2023/04/25 02:22:10;;;;;;;7.18;1.70;;;3.90;99.90;;;;;;5037254;28;20052;-80
2023/04/25 02:24:36;;;;;;;14.77;1.92;;;3.80;99.90;;;;;;5020917;28;20081;-80
2023/04/25 02:27:03;;;;;;;10.68;1.95;;;3.80;99.90;;;;;;5019562;28;20375;-80
2023/04/25 02:29:30;;;;;;;6.80;1.90;;;3.80;99.90;;;;;;5037875;28;20467;-79
2023/04/25 02:31:57;;;;;;;15.48;2.95;;;3.80;99.90;;;;;;5020493;28;20041;-79
2023/04/25 02:34:25;;;;;;;12.40;1.75;;;3.70;99.90;;;;;;5019821;28;20046;-79
2023/04/25 02:36:52;;;;;;;7.95;2.00;;;3.70;99.90;;;;;;5020299;28;20141;-79
2023/04/25 02:39:22;;;;;;;18.27;3.40;;;3.70;99.90;;;;;;5020378;28;20045;-79
2023/04/25 02:41:48;;;;;;;5.70;1.67;;;3.70;99.90;;;;;;5023742;28;20064;-79
2023/04/25 02:44:15;;;;;;;15.30;3.13;;;3.60;99.90;;;;;;5036697;28;20053;-78
2023/04/25 02:46:44;;;;;;;7.85;2.83;;;3.60;99.90;;;;;;5019585;28;20064;-79
2023/04/25 02:49:13;;;;;;;9.95;2.05;;;3.60;99.90;;;;;;5037834;28;20037;-78
2023/04/25 02:51:39;;;;;;;7.65;2.05;;;3.60;99.90;;;;;;5036681;28;20037;-79
2023/04/25 02:54:06;;;;;;;8.90;2.00;;;3.60;99.90;;;;;;5035781;28;20037;-78
2023/04/25 02:56:38;;;;;;;25.77;2.38;;;3.50;99.90;;;;;;5037291;28;20394;-80
2023/04/25 02:59:10;;;;;;;5.15;1.80;;;3.50;99.90;;;;;;5037281;28;20408;-78
2023/04/25 03:01:36;;;;;;;15.23;2.42;;;3.50;99.90;;;;;;5036732;28;20328;-79
2023/04/25 03:04:03;;;;;;;5.93;1.70;;;3.50;99.90;;;;;;5035882;28;20136;-79
2023/04/25 03:06:30;;;;;;;8.55;2.08;;;3.50;99.90;;;;;;5036582;28;20103;-79
2023/04/25 03:08:59;;;;;;;11.00;1.85;;;3.50;99.90;;;;;;5019022;28;20051;-79
2023/04/25 03:11:26;;;;;;;6.93;2.35;;;3.50;99.90;;;;;;5036223;28;20049;-79
2023/04/25 03:13:53;;;;;;;7.20;2.15;;;3.40;99.90;;;;;;5035345;28;20087;-79
2023/04/25 03:16:20;;;;;;;9.82;1.60;;;3.40;99.90;;;;;;5036102;28;20045;-78
2023/04/25 03:18:47;;;;;;;9.02;2.15;;;3.40;99.90;;;;;;5037087;28;20460;-79
2023/04/25 03:21:13;;;;;;;8.00;1.90;;;3.30;99.90;;;;;;5035768;28;20103;-78
2023/04/25 03:23:40;;;;;;;9.63;1.90;;;3.40;99.90;;;;;;5036022;28;20384;-81
2023/04/25 03:26:07;;;;;;;11.95;2.35;;;3.30;99.90;;;;;;5019434;28;20056;-79
2023/04/25 03:28:34;;;;;;;5.53;2.08;;;3.30;99.90;;;;;;5036034;28;20044;-79
2023/04/25 03:31:00;;;;;;;7.45;2.05;;;3.30;99.90;;;;;;5037070;28;20060;-79
2023/04/25 03:33:27;;;;;;;9.52;2.63;;;3.30;99.90;;;;;;5034937;28;20108;-79
2023/04/25 03:35:54;;;;;;;17.45;2.47;;;3.30;99.90;;;;;;5035969;28;20056;-79
2023/04/25 03:38:21;;;;;;;22.55;2.60;;;3.30;99.90;;;;;;5035845;28;20045;-79
2023/04/25 03:40:47;;;;;;;12.02;1.90;;;3.20;99.90;;;;;;5034825;28;20067;-79
2023/04/25 03:43:25;;;;;;;3.85;1.52;;;3.20;99.90;;;;;;5020958;28;20487;-79
2023/04/25 03:45:59;;;;;;;5.50;1.73;;;3.10;99.90;;;;;;5035496;28;20072;-79
2023/04/25 03:48:27;;;;;;;7.63;2.03;;;3.10;99.90;;;;;;5034631;28;20056;-79
2023/04/25 03:50:54;;;;;;;8.10;2.08;;;3.10;99.90;;;;;;5036353;28;20037;-79
2023/04/25 03:53:21;;;;;;;9.85;2.22;;;3.10;99.90;;;;;;5034761;28;20041;-79
2023/04/25 03:56:06;;;;;;;4.15;1.48;;;3.10;99.90;;;;;;5036602;28;20143;-79
2023/04/25 03:58:37;;;;;;;9.70;2.33;;;3.10;99.90;;;;;;5035317;28;20119;-79
2023/04/25 04:01:07;;;;;;;12.52;2.05;;;3.10;99.90;;;;;;5034890;28;20042;-79
2023/04/25 04:03:36;;;;;;;5.50;1.83;;;3.00;99.90;;;;;;5035132;28;20567;-79
2023/04/25 04:06:04;;;;;;;10.48;2.42;;;3.10;99.90;;;;;;5018813;28;20433;-79
2023/04/25 04:08:33;;;;;;;7.57;1.58;;;3.00;99.90;;;;;;5034565;28;20056;-79
2023/04/25 04:10:59;;;;;;;6.25;2.03;;;3.00;99.90;;;;;;5018943;28;20045;-79
2023/04/25 04:13:26;;;;;;;5.00;1.83;;;3.00;99.90;;;;;;5034957;28;20041;-79
2023/04/25 04:15:53;;;;;;;8.23;2.63;;;3.00;99.90;;;;;;5034260;28;20081;-79
2023/04/25 04:18:22;;;;;;;8.43;1.83;;;3.00;99.90;;;;;;5035028;28;20042;-79
2023/04/25 04:20:49;;;;;;;9.98;1.95;;;2.90;99.90;;;;;;5018057;28;20468;-79
2023/04/25 04:23:16;;;;;;;17.33;1.88;;;2.90;99.90;;;;;;5036157;28;20095;-79
2023/04/25 04:25:43;;;;;;;7.78;2.63;;;2.90;99.90;;;;;;5035242;28;20046;-79
2023/04/25 04:28:21;;;;;;;13.02;2.38;;;2.90;99.90;;;;;;5034195;28;20037;-79
2023/04/25 04:30:53;;;;;;;8.82;2.35;;;2.80;99.90;;;;;;5034818;28;20061;-79
2023/04/25 04:33:21;;;;;;;8.20;2.15;;;2.90;99.90;;;;;;5017472;28;20068;-79
2023/04/25 04:35:55;;;;;;;6.45;1.88;;;2.90;99.90;;;;;;5035533;28;20037;-79
2023/04/25 04:38:22;;;;;;;9.05;2.00;;;2.90;99.90;;;;;;5034592;28;20042;-79
2023/04/25 04:40:50;;;;;;;6.32;1.88;;;2.80;99.90;;;;;;5017796;28;20095;-79
2023/04/25 04:43:32;;;;;;;5.85;1.90;;;2.80;99.90;;;;;;5034421;28;20049;-79
2023/04/25 04:46:22;;;;;;;9.60;1.95;;;2.80;99.90;;;;;;5026577;28;20445;-79
2023/04/25 04:52:16;;;;;;;6.07;1.92;;;2.80;99.90;;;;;;5035519;28;20056;-79
2023/04/25 04:54:59;;;;;;;12.27;2.08;;;2.80;99.90;;;;;;5033513;28;20053;-79
2023/04/25 04:57:42;;;;;;;4.70;1.77;;;2.80;99.90;;;;;;5034347;28;20037;-79
2023/04/25 05:00:29;;;;;;;5.07;1.65;;;2.80;99.90;;;;;;5033545;28;20075;-79
2023/04/25 05:03:28;;;;;;;7.53;1.65;;;2.80;99.90;;;;;;5034372;28;20050;-79
2023/04/25 05:06:25;;;;;;;10.93;1.73;;;2.80;99.90;;;;;;5025668;28;20045;-79
2023/04/25 05:09:11;;;;;;;14.80;2.00;;;2.80;99.90;;;;;;5035277;28;20376;-79
2023/04/25 05:11:53;;;;;;;8.35;2.10;;;2.80;99.90;;;;;;5019928;28;20046;-79
2023/04/25 05:14:35;;;;;;;8.55;2.08;;;2.80;99.90;;;;;;5033563;28;20060;-79
2023/04/25 05:17:22;;;;;;;6.25;1.90;;;2.80;99.90;;;;;;5035117;28;20372;-78
2023/04/25 05:20:13;;;;;;;7.10;2.00;;;2.80;99.90;;;;;;5031336;28;20053;-78
2023/04/25 05:23:03;;;;;;;8.25;1.88;;;2.80;99.90;;;;;;5019891;28;20041;-78
2023/04/25 05:25:40;;;;;;;6.28;1.92;;;2.90;99.90;;;;;;5033885;28;20041;-78
2023/04/25 05:28:15;;;;;;;6.22;2.20;;;2.90;99.90;;;;;;5033036;28;20053;-78
2023/04/25 05:30:49;;;;;;;12.52;2.40;;;3.00;99.90;;;;;;5034439;28;20412;-78
2023/04/25 05:33:20;;;;;;;9.43;2.05;;;3.00;99.90;;;;;;5017154;28;20053;-78
2023/04/25 05:35:46;;;;;;;8.52;1.85;;;3.10;99.90;;;;;;5034023;28;20081;-78
2023/04/25 05:41:13;;;;;;;7.72;2.42;;;3.10;99.90;;;;;;5036299;28;20057;-79
2023/04/25 05:43:46;;;;;;;22.63;2.30;;;3.20;99.90;;;;;;5036958;28;20468;-78
2023/04/25 05:46:21;;;;;;;9.77;2.03;;;3.20;99.90;;;;;;5036945;28;20360;-78
2023/04/25 05:49:05;;;;;;;14.45;2.38;;;3.30;99.90;;;;;;5036821;28;20509;-78
2023/04/25 05:51:52;;;;;;;21.48;2.17;;;3.30;99.90;;;;;;5039707;28;20049;-78
2023/04/25 05:54:30;;;;;;;15.05;2.45;;;3.40;99.90;;;;;;5053650;28;20041;-78
2023/04/25 05:56:58;;;;;;;11.50;2.08;;;3.50;99.90;;;;;;5036698;28;20131;-78
2023/04/25 05:59:27;;;;;;;7.40;1.98;;;3.60;99.90;;;;;;5035567;28;20033;-79
2023/04/25 06:01:54;;;;;;;8.48;2.35;;;3.60;99.90;;;;;;5016224;28;20046;-79
2023/04/25 06:04:21;;;;;;;13.35;2.40;;;3.70;99.90;;;;;;5017105;28;20116;-79
2023/04/25 06:06:48;;;;;;;9.02;2.22;;;3.70;99.90;;;;;;5016055;28;20139;-78
2023/04/25 06:09:16;;;;;;;12.60;2.85;;;3.70;99.90;;;;;;5034317;28;20046;-78
2023/04/25 06:11:43;;;;;;;9.10;2.08;;;3.80;99.90;;;;;;5016977;28;20152;-78
2023/04/25 06:14:10;;;;;;;9.18;2.30;;;4.00;99.90;;;;;;5016104;28;20056;-78
2023/04/25 06:16:45;;;;;;;6.65;1.88;;;4.20;99.90;;;;;;5017059;28;20479;-79
2023/04/25 06:19:12;;;;;;;8.00;2.28;;;4.20;99.90;;;;;;5016766;28;20081;-79
2023/04/25 06:21:38;;;;;;;9.60;2.13;;;4.30;99.90;;;;;;5033501;28;20033;-79
2023/04/25 06:24:05;;;;;;;8.93;2.10;;;4.40;99.90;;;;;;5034191;28;20069;-79
2023/04/25 06:26:32;;;;;;;7.65;2.45;;;4.40;99.90;;;;;;5016620;28;20140;-78
2023/04/25 06:31:46;;;;;;;11.02;2.20;;;4.60;99.90;;;;;;5017166;28;20139;-79
2023/04/25 06:34:12;;;;;;;8.43;2.10;;;4.80;99.90;;;;;;4999813;28;20045;-79
2023/04/25 06:36:41;;;;;;;11.45;1.90;;;4.80;99.90;;;;;;5016606;28;20057;-78
2023/04/25 06:39:12;;;;;;;12.43;2.30;;;5.00;99.90;;;;;;5018693;28;20128;-79
2023/04/25 06:41:39;;;;;;;6.95;2.08;;;5.00;99.90;;;;;;5022466;28;20064;-78
2023/04/25 06:44:08;;;;;;;9.45;2.05;;;5.10;99.90;;;;;;5020966;28;20099;-78
2023/04/25 06:46:39;;;;;;;7.95;2.05;;;5.20;99.90;;;;;;5035916;28;20037;-79
2023/04/25 06:49:08;;;;;;;14.95;2.67;;;5.40;99.90;;;;;;5036637;28;20052;-79
2023/04/25 06:51:35;;;;;;;8.50;2.33;;;5.40;99.90;;;;;;5020591;28;20045;-79
2023/04/25 06:54:03;;;;;;;11.43;2.50;;;5.50;99.90;;;;;;5019650;28;20163;-79
2023/04/25 06:56:39;;;;;;;15.88;2.78;;;5.70;99.90;;;;;;5036891;28;20084;-80
2023/04/25 06:59:12;;;;;;;8.25;2.03;;;5.80;99.90;;;;;;5025097;28;20465;-79
2023/04/25 07:01:40;;;;;;;12.88;2.75;;;6.00;99.90;;;;;;5015941;28;20376;-79
2023/04/25 07:04:16;;;;;;;10.20;2.40;;;6.10;99.90;;;;;;5016524;28;20097;-81
2023/04/25 07:06:54;;;;;;;9.25;2.10;;;6.20;99.90;;;;;;5033873;28;20069;-78
2023/04/25 07:09:35;;;;;;;10.10;2.50;;;6.40;99.90;;;;;;5016510;28;20046;-79
2023/04/25 07:12:02;;;;;;;9.57;2.47;;;6.50;99.90;;;;;;5000229;28;20070;-79
2023/04/25 07:14:29;;;;;;;12.15;2.13;;;6.50;99.90;;;;;;5016689;28;20038;-79
2023/04/25 07:16:57;;;;;;;8.85;2.20;;;6.60;99.90;;;;;;5051679;28;20095;-79
2023/04/25 07:19:26;;;;;;;7.97;2.22;;;6.80;99.90;;;;;;5056018;28;20459;-79
2023/04/25 07:21:55;;;;;;;12.48;2.40;;;6.80;99.90;;;;;;5055158;28;20073;-79
2023/04/25 07:24:22;;;;;;;11.32;2.25;;;7.00;99.90;;;;;;5039441;28;20064;-79
2023/04/25 07:26:51;;;;;;;7.57;2.42;;;7.00;99.90;;;;;;5055153;28;20057;-79
2023/04/25 07:32:10;;;;;;;14.80;2.20;;;6.90;99.90;;;;;;5056913;28;20128;-79
2023/04/25 07:34:37;;;;;;;9.13;2.33;;;7.00;99.90;;;;;;5036959;28;20052;-79
2023/04/25 07:37:03;;;;;;;11.60;2.45;;;7.20;99.90;;;;;;5035987;28;20045;-79
2023/04/25 07:39:37;;;;;;;11.60;2.00;;;7.20;99.90;;;;;;5035679;28;20057;-80
2023/04/25 07:42:07;;;;;;;9.95;1.92;;;7.40;99.90;;;;;;5018503;28;20063;-79
2023/04/25 07:44:42;;;;;;;11.32;2.92;;;7.50;99.90;;;;;;5035547;28;20056;-80
2023/04/25 07:47:12;;;;;;;13.20;2.90;;;7.70;99.90;;;;;;5018966;28;20059;-79
2023/04/25 07:49:43;;;;;;;10.38;2.42;;;7.70;99.90;;;;;;5019168;28;20051;-82
2023/04/25 07:52:10;;;;;;;15.43;3.17;;;7.60;99.90;;;;;;5018358;28;20107;-80
2023/04/25 07:54:41;;;;;;;9.50;2.70;;;7.80;99.90;;;;;;5031925;28;20393;-79
2023/04/25 07:57:16;;;;;;;8.02;2.65;;;7.80;99.90;;;;;;5034958;28;20077;-80
2023/04/25 07:59:44;;;;;;;16.35;3.10;;;7.90;99.90;;;;;;5035130;28;20045;-81
2023/04/25 08:02:12;;;;;;;10.02;2.55;;;7.80;99.90;;;;;;5017547;28;20476;-80
2023/04/25 08:04:39;;;;;;;16.77;2.63;;;8.00;99.90;;;;;;5035051;28;20042;-80
2023/04/25 08:07:08;;;;;;;9.30;2.10;;;8.00;99.90;;;;;;5029813;28;20041;-80
2023/04/25 08:09:42;;;;;;;7.70;2.50;;;8.20;99.90;;;;;;5034705;28;20041;-80
2023/04/25 08:12:16;;;;;;;10.57;2.67;;;8.30;99.90;;;;;;5034920;28;20049;-80
2023/04/25 08:14:42;;;;;;;10.88;2.45;;;8.40;99.90;;;;;;5034279;28;20063;-79
2023/04/25 08:17:10;;;;;;;15.10;2.10;;;8.40;99.90;;;;;;5034478;28;20546;-81
2023/04/25 08:19:40;;;;;;;14.07;4.10;;;8.40;99.90;;;;;;5017524;28;20049;-79
2023/04/25 08:22:17;;;;;;;6.97;2.15;;;8.50;99.90;;;;;;5028720;28;20376;-79
2023/04/25 08:24:51;;;;;;;12.05;2.42;;;8.50;99.90;;;;;;5018189;28;20064;-81
2023/04/25 08:27:21;;;;;;;9.27;1.95;;;8.60;99.90;;;;;;5016443;28;20041;-81
2023/04/25 08:29:48;;;;;;;8.82;2.00;;;8.60;99.90;;;;;;5019029;28;20356;-79
2023/04/25 08:32:14;;;;;;;11.65;2.00;;;8.60;99.90;;;;;;5017125;28;20435;-81
2023/04/25 08:34:54;;;;;;;8.55;2.20;;;8.80;99.90;;;;;;5033063;28;20132;-80
2023/04/25 08:37:21;;;;;;;12.23;2.50;;;8.90;99.90;;;;;;5033943;28;20046;-79
2023/04/25 08:40:02;;;;;;;8.38;1.90;;;9.00;99.90;;;;;;5018424;28;20045;-81
2023/04/25 08:42:42;;;;;;;10.63;2.10;;;9.20;99.90;;;;;;5033940;28;20099;-82
2023/04/25 08:45:08;;;;;;;8.88;2.53;;;9.40;99.90;;;;;;5016917;28;20399;-81
2023/04/25 08:47:38;;;;;;;11.48;2.30;;;9.50;99.90;;;;;;5033024;28;20045;-82
2023/04/25 08:50:06;;;;;;;13.25;2.50;;;9.40;99.90;;;;;;5017502;28;20073;-81
2023/04/25 08:52:34;;;;;;;10.77;2.17;;;9.20;99.90;;;;;;5030607;28;20140;-82
2023/04/25 08:55:01;;;;;;;8.90;1.90;;;9.20;99.90;;;;;;5016489;28;20064;-80
2023/04/25 09:00:31;;;;;;;8.55;1.90;;;9.60;99.90;;;;;;5032008;28;20079;-81
2023/04/25 09:02:58;;;;;;;6.28;2.03;;;9.80;99.90;;;;;;5033401;28;20149;-81
2023/04/25 09:05:29;;;;;;;7.35;1.75;;;9.80;99.90;;;;;;5033192;28;20498;-81
2023/04/25 09:10:27;;;;;;;11.55;2.22;;;10.00;99.90;;;;;;5021301;28;20068;-80
2023/04/25 09:12:56;;;;;;;6.90;2.05;;;9.80;99.90;;;;;;5027689;28;20483;-80
2023/04/25 09:15:23;;;;;;;9.88;1.92;;;10.10;99.90;;;;;;5027814;28;20636;-81
2023/04/25 09:20:22;;;;;;;17.52;2.60;;;10.20;99.90;;;;;;5032292;28;20176;-80
2023/04/25 09:22:49;;;;;;;10.60;2.20;;;10.10;99.90;;;;;;5016695;28;20048;-80
2023/04/25 09:25:16;;;;;;;13.23;2.60;;;10.20;99.90;;;;;;5032865;28;20044;-81
2023/04/25 09:27:44;;;;;;;7.78;2.45;;;10.20;99.90;;;;;;5032187;28;20421;-81
2023/04/25 09:30:17;;;;;;;9.57;1.63;;;10.30;99.90;;;;;;5033400;28;20045;-81
2023/04/25 09:33:13;;;;;;;4.45;1.58;;;10.10;99.90;;;;;;5026651;28;20125;-81
2023/04/25 09:35:45;;;;;;;7.60;1.60;;;9.70;99.90;;;;;;5033605;28;20144;-81
2023/04/25 09:38:21;;;;;;;8.45;2.08;;;9.80;99.90;;;;;;5033352;28;20468;-81
2023/04/25 09:40:56;;;;;;;8.98;1.88;;;10.30;99.90;;;;;;5017363;28;20056;-81
2023/04/25 09:43:34;;;;;;;4.18;1.35;;;10.00;99.90;;;;;;5033644;28;20128;-81
2023/04/25 09:46:01;;;;;;;5.82;1.60;;;10.10;99.90;;;;;;5017132;28;20052;-81
2023/04/25 09:48:31;;;;;;;4.88;1.30;;;10.30;99.90;;;;;;5016542;28;20079;-83
2023/04/25 09:51:02;;;;;;;6.72;1.80;;;10.40;99.90;;;;;;5033404;28;20061;-81
2023/04/25 09:53:30;;;;;;;8.73;2.05;;;10.60;99.90;;;;;;5032474;28;20049;-81
2023/04/25 09:56:11;;;;;;;5.10;1.35;;;10.50;99.90;;;;;;4998940;28;20108;-81
2023/04/25 09:58:40;;;;;;;8.63;1.83;;;10.50;99.90;;;;;;5008918;28;20042;-81
2023/04/25 10:01:07;;;;;;;6.65;1.92;;;10.90;99.90;;;;;;5032211;28;20413;-81
2023/04/25 10:03:43;;;;;;;9.50;1.90;;;10.70;99.90;;;;;;5033500;28;20048;-82
2023/04/25 10:06:25;;;;;;;9.65;1.60;;;10.60;99.90;;;;;;5033140;28;20049;-81
2023/04/25 10:08:52;;;;;;;6.47;1.83;;;10.40;99.90;;;;;;5033394;28;20372;-81
2023/04/25 10:11:18;;;;;;;8.05;1.80;;;10.40;99.90;;;;;;5033088;28;20116;-82
2023/04/25 10:13:45;;;;;;;6.00;1.70;;;10.50;99.90;;;;;;5034261;28;20060;-82
2023/04/25 10:16:11;;;;;;;6.10;1.60;;;10.70;99.90;;;;;;5037584;28;20052;-82
2023/04/25 10:18:38;;;;;;;5.60;1.50;;;10.80;99.90;;;;;;5036739;28;20519;-81
2023/04/25 10:21:05;;;;;;;6.78;1.75;;;10.80;99.90;;;;;;5036602;28;20075;-83
2023/04/25 10:23:34;;;;;;;4.93;1.58;;;11.00;99.90;;;;;;5037686;28;20545;-81
2023/04/25 10:26:00;;;;;;;5.65;1.88;;;11.30;99.90;;;;;;5036807;28;20069;-81
2023/04/25 10:28:28;;;;;;;8.38;1.83;;;11.20;99.90;;;;;;5035582;28;20492;-81
2023/04/25 10:30:54;;;;;;;5.30;1.58;;;11.40;99.90;;;;;;5037685;28;20046;-81
2023/04/25 10:33:21;;;;;;;5.00;1.55;;;12.10;99.90;;;;;;5035627;28;20392;-81
2023/04/25 10:35:51;;;;;;;6.43;1.45;;;12.60;96.90;;;;;;5037651;28;20048;-82
2023/04/25 10:38:17;;;;;;;7.45;1.70;;;13.10;98.40;;;;;;5036790;28;20041;-81
2023/04/25 10:40:47;;;;;;;7.82;1.80;;;13.50;99.90;;;;;;5035432;28;20037;-80
2023/04/25 10:43:14;;;;;;;4.78;1.98;;;14.10;94.50;;;;;;5037472;28;20045;-82
2023/04/25 10:45:40;;;;;;;5.53;1.67;;;14.40;90.80;;;;;;5020065;28;20083;-81
2023/04/25 10:48:07;;;;;;;8.05;2.05;;;14.20;90.80;;;;;;5018758;28;20068;-81
2023/04/25 10:50:34;;;;;;;6.93;1.98;;;14.50;87.70;;;;;;5036136;28;20045;-81
2023/04/25 10:53:00;;;;;;;7.68;1.67;;;14.90;90.70;;;;;;5035973;28;20045;-81
2023/04/25 10:55:27;;;;;;;9.48;1.73;;;15.50;90.90;;;;;;5018769;28;20050;-82
2023/04/25 10:57:54;;;;;;;5.78;1.65;;;15.90;85.00;;;;;;5036118;28;20471;-82
2023/04/25 11:00:21;;;;;;;5.03;1.55;;;16.20;80.30;;;;;;5035139;28;20037;-82
2023/04/25 11:02:56;;;;;;;6.25;1.67;;;15.70;83.50;;;;;;5036225;28;20107;-83
2023/04/25 11:05:23;;;;;;;5.70;1.80;;;15.50;83.50;;;;;;5035912;28;20051;-82
2023/04/25 11:07:50;;;;;;;4.82;1.50;;;15.80;87.10;;;;;;5018475;28;20073;-81
2023/04/25 11:10:29;;;;;;;7.13;1.55;;;16.20;76.90;;;;;;5037316;28;20042;-82
2023/04/25 11:12:56;;;;;;;5.88;1.40;;;16.70;68.90;;;;;;5037041;28;20045;-82
2023/04/25 11:15:23;;;;;;;5.63;1.80;;;16.40;69.80;;;;;;5036025;28;20037;-81
2023/04/25 11:17:50;;;;;;;4.72;1.52;;;16.40;75.80;;;;;;5019283;28;20067;-83
2023/04/25 11:20:17;;;;;;;6.25;1.60;;;16.10;78.20;;;;;;5034920;28;20041;-83
2023/04/25 11:22:43;;;;;;;7.30;1.98;;;15.40;72.40;;;;;;5035850;28;20041;-82
2023/04/25 11:25:10;;;;;;;7.20;2.13;;;15.10;79.30;;;;;;5035300;28;20053;-81
2023/04/25 11:27:37;;;;;;;5.68;1.90;;;15.50;79.00;;;;;;5034649;28;20375;-81
2023/04/25 11:30:03;;;;;;;9.55;2.10;;;15.60;80.40;;;;;;5023452;28;20381;-81
2023/04/25 11:32:31;;;;;;;4.95;1.92;;;15.30;74.20;;;;;;4997552;28;20053;-80
2023/04/25 11:34:58;;;;;;;6.22;1.75;;;15.00;76.40;;;;;;5014678;28;20042;-81
2023/04/25 11:37:24;;;;;;;6.05;1.80;;;14.40;77.40;;;;;;5015023;28;20056;-83
2023/04/25 11:39:51;;;;;;;7.20;1.98;;;14.00;80.20;;;;;;5015541;28;20038;-82
2023/04/25 11:42:18;;;;;;;5.45;1.90;;;13.90;82.50;;;;;;5030082;28;20065;-83
2023/04/25 11:44:44;;;;;;;8.80;2.03;;;13.60;77.40;;;;;;5033905;28;20051;-84
2023/04/25 11:47:11;;;;;;;8.02;2.60;;;13.40;82.40;;;;;;5033562;28;20075;-79
2023/04/25 11:49:38;;;;;;;9.88;2.30;;;13.30;81.00;;;;;;5036592;28;20049;-79
2023/04/25 11:52:05;;;;;;;10.18;2.88;;;13.30;84.10;;;;;;5018897;28;20052;-79
2023/04/25 11:54:31;;;;;;;8.40;2.40;;;14.20;84.90;;;;;;5035301;28;20041;-80
2023/04/25 11:56:58;;;;;;;5.63;2.17;;;15.10;78.30;;;;;;5034801;28;20048;-80
2023/04/25 11:59:25;;;;;;;10.07;2.30;;;16.00;73.20;;;;;;5035247;28;20037;-81
2023/04/25 12:01:52;;;;;;;6.90;2.05;;;16.70;70.10;;;;;;5034081;28;20037;-81
2023/04/25 12:04:18;;;;;;;7.55;2.42;;;17.40;70.80;;;;;;5035210;28;20053;-81
2023/04/25 12:06:49;;;;;;;6.50;2.50;;;18.20;75.90;;;;;;5034612;28;20048;-81
2023/04/25 12:09:17;;;;;;;6.72;2.50;;;18.40;71.70;;;;;;5035129;28;20048;-82
2023/04/25 12:11:44;;;;;;;8.55;2.60;;;17.00;65.50;;;;;;5035832;28;20523;-81
2023/04/25 12:14:11;;;;;;;9.27;2.58;;;16.50;70.50;;;;;;5033856;28;20069;-82
2023/04/25 12:16:38;;;;;;;9.98;2.58;;;16.00;72.70;;;;;;5034852;28;20041;-81
2023/04/25 12:19:05;;;;;;;9.10;2.80;;;15.20;70.00;;;;;;5035582;28;20087;-82
2023/04/25 12:21:32;;;;;;;7.72;3.03;;;14.50;70.70;;;;;;5034683;28;20120;-82
2023/04/25 12:24:04;;;;;;;6.38;2.30;;;14.20;75.00;;;;;;5019221;28;20364;-82
2023/04/25 12:26:30;;;;;;;9.30;2.80;;;14.20;73.00;;;;;;5035176;28;20101;-82
2023/04/25 12:28:57;;;;;;;7.43;2.47;;;14.70;72.90;;;;;;5033589;28;20077;-82
2023/04/25 12:31:24;;;;;;;5.97;2.15;;;16.00;75.10;;;;;;5034788;28;20441;-80
2023/04/25 12:33:50;;;;;;;6.75;2.47;;;16.90;65.40;;;;;;5033761;28;20045;-82
2023/04/25 12:36:20;;;;;;;9.40;2.35;;;17.10;66.10;;;;;;5034067;28;20049;-81
2023/04/25 12:38:47;;;;;;;6.95;1.98;;;16.50;65.40;;;;;;5035384;28;20052;-82
2023/04/25 12:41:14;;;;;;;5.63;2.08;;;16.10;68.20;;;;;;5035152;28;20034;-80
2023/04/25 12:43:41;;;;;;;7.85;1.92;;;15.90;65.40;;;;;;5037703;28;20098;-81
2023/04/25 12:46:08;;;;;;;6.28;2.15;;;15.50;69.40;;;;;;5038119;28;20055;-81
2023/04/25 12:48:35;;;;;;;4.32;2.10;;;15.30;70.20;;;;;;5036110;28;20094;-81
2023/04/25 12:51:01;;;;;;;5.72;1.98;;;15.10;69.90;;;;;;5053860;28;20124;-81
2023/04/25 12:53:28;;;;;;;6.10;2.20;;;14.50;71.50;;;;;;5035548;28;20110;-81
2023/04/25 12:55:55;;;;;;;8.00;2.30;;;14.40;74.00;;;;;;5037334;28;20056;-81
2023/04/25 12:58:23;;;;;;;9.15;2.70;;;15.10;71.90;;;;;;5050081;28;20045;-81
2023/04/25 13:00:50;;;;;;;11.85;2.22;;;15.20;70.10;;;;;;5016579;28;20042;-81
2023/04/25 13:03:17;;;;;;;5.55;2.33;;;15.20;72.00;;;;;;5017411;28;20080;-81
2023/04/25 13:05:44;;;;;;;5.45;2.03;;;14.90;70.70;;;;;;5016987;28;20157;-82
2023/04/25 13:08:11;;;;;;;6.35;1.55;;;14.70;72.30;;;;;;5016665;28;20468;-81
2023/04/25 13:10:38;;;;;;;6.13;1.85;;;14.40;66.60;;;;;;5034844;28;20063;-81
2023/04/25 13:13:06;;;;;;;7.68;2.00;;;13.90;67.10;;;;;;5016805;28;20025;-80
2023/04/25 13:15:32;;;;;;;5.45;2.08;;;13.80;71.20;;;;;;5016718;28;20139;-80
2023/04/25 13:18:01;;;;;;;8.77;2.22;;;13.90;73.30;;;;;;5017321;28;20099;-80
2023/04/25 13:20:28;;;;;;;9.60;2.55;;;15.10;73.10;;;;;;5033800;28;20125;-80
2023/04/25 13:22:55;;;;;;;6.05;2.20;;;16.40;68.90;;;;;;5034544;28;20056;-80
2023/04/25 13:25:22;;;;;;;5.00;1.77;;;17.40;64.70;;;;;;5034603;28;20132;-81
2023/04/25 13:27:50;;;;;;;5.22;1.98;;;18.20;67.80;;;;;;5016124;28;20510;-80